Fairchild Air Force Base
KSKA : rendu visible

Aérodrome :











RETROUVEZ-NOUS SUR...

 
LOGIN :

S'inscrire | Disclaimer

   EN    FR    IT 

 









Légende :    VFR   VFR Marginal   IFR   IFR Intensif   IFR Très Intensif
Visi : 
Plafond : 
>= 8 km
>= 3000ft
5 à 8 km
1000 à 3000 ft
1500m à 5 km
500 à 1000 ft
800 à 1500m
200 à 500 ft
< 800m
< 200 ft
Symboles :   Orages  Brouillard  Fortes neiges  Fortes précipitations  Vent > 20 kt






- Altitude de l'aérodrome : 2461 ft


KSKA - Fairchild Air Force Base

DERNIER METAR :
  • 180058Z 10003KT 10SM SCT015 BKN050 M04/M04 A3020 RMK AO2A SLP263 T10411041 $

METARs EXPIRÉS :
  • 172358Z 16004KT 10SM SCT010 BKN050 02/M02 A3018 RMK AO2A SLPNO WND DATA ESTMD AND ALSTG ESTMD 60000 4/006 RVRNO $
  • 172258Z 16005KT 10SM SCT010 BKN080 M03/M03 A3019 RMK AO2A SLPNO WND DATA ESTMD AND ALSTG ESTMD RVRNO $
  • 172208Z 17006KT 10SM SCT010 BKN080 M03/M03 A3016 RMK AO2A SLP247 $

TAF AMD TAF KSKA
Valide du 17 à 21h jusqu'au 19 à 01h UTC


172138Z 1721/1901 16006KT 8000 BR BKN009 620062 QNH3013INS
TEMPO 1721/1724 SCT009 BKN012
BECMG 1800/1801 16006KT 6000 BR VCSH BKN006 OVC012 620069 QNH3019INS
BECMG 1805/1806 16006KT 3200 BR SCT006 OVC012 620129 QNH3017INS
BECMG 1817/1818 16009KT 1600 -SN BR OVC006 620069 QNH3020INS TXM01/1819Z TNM06/1809Z



MET'MAP, la Météo Aéronautique d'un coup d'oeil ! - Copyright ORBIFLY Décembre 2007 - Disclaimer

ORBIFLY MET'MAP TEAM :

Programmation & Développement : Alexandra Zaïnal
Sur une idée originale de : Baudouin d'Aumeries
Assistance à la programmation : Marc-Olivier Méhu
Soutien technique & logistique : Manuel Goepfert

Contact : metmap@orbifly.com




SOURCES & CREDITS :

   NOAA       Earth
Advisory